Time;durP1;ratioP1;P1;durP2;ratioP2;P2;SDS_P1;SDS_P2;PMS_P1;PMS_P2;Temp;Humidity;BMP_temperature;BMP_pressure;BME280_temperature;BME280_humidity;BME280_pressure;Samples;Min_cycle;Max_cycle;Signal;HPM_P1;HPM_P2
2023/02/04 00:01:39;;;;;;;27.70;5.63;;;14.80;82.90;;;;;;4062740;29;20078;-63
2023/02/04 00:04:19;;;;;;;28.52;6.20;;;14.80;83.90;;;;;;4063142;29;20059;-63
2023/02/04 00:07:00;;;;;;;28.75;5.78;;;14.90;82.90;;;;;;4062950;29;20067;-62
2023/02/04 00:09:41;;;;;;;28.15;6.07;;;15.00;82.60;;;;;;4062570;29;20059;-63
2023/02/04 00:12:22;;;;;;;35.03;6.55;;;15.00;83.10;;;;;;4062894;29;20059;-63
2023/02/04 00:15:03;;;;;;;30.05;5.75;;;15.10;82.30;;;;;;4047669;29;20588;-63
2023/02/04 00:17:46;;;;;;;35.03;4.93;;;15.10;82.10;;;;;;4062651;29;20501;-63
2023/02/04 00:20:26;;;;;;;22.10;4.90;;;15.10;82.00;;;;;;4061879;29;20503;-63
2023/02/04 00:23:08;;;;;;;22.90;4.93;;;15.10;83.30;;;;;;4061714;29;20183;-63
2023/02/04 00:25:49;;;;;;;27.50;4.97;;;15.20;82.10;;;;;;4062478;29;20137;-63
2023/02/04 00:28:30;;;;;;;24.42;5.03;;;15.20;81.60;;;;;;4062106;29;20066;-63
2023/02/04 00:31:11;;;;;;;32.85;5.68;;;15.30;81.70;;;;;;4046956;29;20357;-63
2023/02/04 00:33:54;;;;;;;;;;;15.30;81.60;;;;;;4047316;29;20427;-63
2023/02/04 00:36:34;;;;;;;21.23;4.38;;;15.30;81.80;;;;;;4024193;29;19934;-64
2023/02/04 00:39:16;;;;;;;21.40;4.80;;;15.30;81.90;;;;;;4048970;29;20051;-63
2023/02/04 00:41:57;;;;;;;22.25;4.70;;;15.40;81.80;;;;;;4062095;29;20074;-63
2023/02/04 00:44:38;;;;;;;23.55;5.13;;;15.40;81.70;;;;;;4065412;29;20051;-63
2023/02/04 00:47:18;;;;;;;20.63;4.45;;;15.40;81.50;;;;;;4065404;29;20055;-63
2023/02/04 00:50:01;;;;;;;22.45;4.32;;;15.30;81.30;;;;;;4065291;29;20147;-63
2023/02/04 00:52:42;;;;;;;21.65;4.43;;;15.30;81.30;;;;;;4053813;29;20078;-63
2023/02/04 00:55:22;;;;;;;22.92;5.28;;;15.30;81.50;;;;;;4065286;29;20058;-63
2023/02/04 00:58:03;;;;;;;27.25;5.32;;;15.30;81.60;;;;;;4053549;29;20059;-63
2023/02/04 01:00:45;;;;;;;;;;;15.30;82.20;;;;;;4050273;29;20064;-63
2023/02/04 01:03:26;;;;;;;19.20;4.90;;;15.30;82.60;;;;;;4038359;29;19930;-63
2023/02/04 01:06:11;;;;;;;24.77;5.50;;;15.30;82.40;;;;;;4038279;29;20510;-63
2023/02/04 01:08:52;;;;;;;22.58;4.47;;;15.40;82.20;;;;;;4051491;29;20044;-63
2023/02/04 01:11:33;;;;;;;29.10;5.80;;;15.40;82.00;;;;;;4057283;29;20062;-62
2023/02/04 01:14:14;;;;;;;30.30;5.78;;;15.50;82.20;;;;;;4053544;29;20181;-63
2023/02/04 01:16:55;;;;;;;29.50;5.63;;;15.50;81.70;;;;;;4065100;29;20143;-63
2023/02/04 01:19:36;;;;;;;34.33;5.50;;;15.60;81.30;;;;;;4033889;29;20059;-63
2023/02/04 01:22:18;;;;;;;26.02;5.80;;;15.60;81.30;;;;;;4033253;29;20063;-63
2023/02/04 01:25:00;;;;;;;22.90;5.68;;;15.70;80.90;;;;;;4018800;29;20069;-63
2023/02/04 01:27:53;;;;;;;24.40;4.20;;;15.70;80.60;;;;;;4018601;29;20409;-63
2023/02/04 01:30:34;;;;;;;30.33;6.03;;;15.70;80.50;;;;;;4043287;29;20063;-63
2023/02/04 01:33:15;;;;;;;18.25;4.57;;;15.70;80.40;;;;;;4043927;29;20052;-63
2023/02/04 01:35:56;;;;;;;24.65;6.00;;;15.70;80.60;;;;;;4034040;29;20072;-63
2023/02/04 01:38:38;;;;;;;29.65;5.80;;;15.80;80.40;;;;;;4033080;29;20087;-64
2023/02/04 01:41:19;;;;;;;24.20;5.85;;;15.80;80.50;;;;;;4017977;29;20193;-63
2023/02/04 01:44:01;;;;;;;28.05;5.65;;;15.90;80.40;;;;;;4017611;29;20144;-63
2023/02/04 01:46:42;;;;;;;25.88;4.75;;;15.80;80.20;;;;;;4018221;29;20098;-63
2023/02/04 01:49:23;;;;;;;35.72;6.97;;;15.90;80.00;;;;;;4023396;29;20519;-63
2023/02/04 01:52:05;;;;;;;22.83;4.65;;;15.90;80.10;;;;;;4032558;29;20073;-63
2023/02/04 01:54:47;;;;;;;32.25;5.78;;;15.80;80.10;;;;;;4033135;29;20128;-63
2023/02/04 01:57:30;;;;;;;25.33;4.93;;;15.70;80.20;;;;;;4033411;29;20116;-66
2023/02/04 02:00:16;;;;;;;31.42;5.45;;;15.70;80.40;;;;;;4021256;29;20533;-65
2023/02/04 02:03:00;;;;;;;25.60;6.63;;;15.70;80.60;;;;;;4033545;29;20060;-64
2023/02/04 02:05:44;;;;;;;25.70;5.28;;;15.60;80.60;;;;;;4032181;29;20401;-65
2023/02/04 02:08:25;;;;;;;26.60;5.45;;;15.60;81.50;;;;;;4033454;29;20052;-65
2023/02/04 02:11:07;;;;;;;35.15;6.00;;;15.70;81.70;;;;;;4032371;29;20048;-65
2023/02/04 02:13:48;;;;;;;23.98;5.45;;;15.70;81.20;;;;;;4032486;29;20549;-65
2023/02/04 02:16:29;;;;;;;22.30;5.40;;;15.80;81.10;;;;;;4033412;29;20063;-66
2023/02/04 02:19:14;;;;;;;30.37;6.23;;;15.80;80.70;;;;;;4032818;29;20393;-65
2023/02/04 02:22:02;;;;;;;26.77;5.43;;;15.80;80.70;;;;;;4027823;29;20132;-65
2023/02/04 02:24:44;;;;;;;35.17;7.43;;;15.80;80.50;;;;;;4033281;29;20060;-65
2023/02/04 02:27:25;;;;;;;32.35;6.28;;;15.70;80.60;;;;;;4033071;29;20075;-65
2023/02/04 02:30:09;;;;;;;27.77;5.60;;;15.70;80.60;;;;;;4033114;29;20137;-65
2023/02/04 02:32:52;;;;;;;30.90;5.50;;;15.70;80.50;;;;;;4033000;29;20204;-63
2023/02/04 02:35:33;;;;;;;28.60;5.72;;;15.80;80.70;;;;;;4021349;29;20063;-63
2023/02/04 02:38:14;;;;;;;27.58;4.68;;;15.80;80.80;;;;;;4031884;29;20083;-64
2023/02/04 02:40:57;;;;;;;29.67;4.97;;;15.90;80.80;;;;;;4017444;29;20051;-63
2023/02/04 02:43:39;;;;;;;27.60;4.38;;;15.90;79.80;;;;;;4017301;29;20056;-63
2023/02/04 02:46:19;;;;;;;26.35;5.03;;;15.80;79.90;;;;;;4028167;29;20181;-64
2023/02/04 02:49:01;;;;;;;32.88;5.10;;;15.80;80.00;;;;;;4032210;29;20060;-63
2023/02/04 02:51:42;;;;;;;;;;;15.70;80.40;;;;;;4033061;29;20060;-63
2023/02/04 02:54:25;;;;;;;29.25;5.20;;;15.70;81.30;;;;;;4032702;29;19934;-63
2023/02/04 02:57:15;;;;;;;22.85;4.40;;;15.70;81.40;;;;;;4021231;29;20056;-63
2023/02/04 02:59:56;;;;;;;23.63;3.97;;;15.70;81.10;;;;;;4032697;29;20056;-63
2023/02/04 03:02:38;;;;;;;23.55;4.13;;;15.70;81.20;;;;;;4020343;29;20056;-63
2023/02/04 03:05:19;;;;;;;18.92;4.30;;;15.80;81.50;;;;;;4020200;29;20052;-63
2023/02/04 03:08:00;;;;;;;22.87;4.80;;;15.80;81.30;;;;;;4031330;29;20056;-63
2023/02/04 03:10:41;;;;;;;17.27;4.25;;;15.90;81.10;;;;;;4030905;29;20434;-63
2023/02/04 03:13:23;;;;;;;25.88;4.25;;;16.00;80.90;;;;;;4021103;29;20055;-63
2023/02/04 03:16:06;;;;;;;19.67;3.40;;;16.00;80.60;;;;;;4017037;29;20405;-63
2023/02/04 03:18:48;;;;;;;20.33;3.58;;;16.00;80.40;;;;;;4048608;29;20056;-63
2023/02/04 03:21:30;;;;;;;18.55;4.40;;;16.00;80.50;;;;;;4033000;29;20080;-63
2023/02/04 03:24:12;;;;;;;19.15;3.95;;;16.00;80.30;;;;;;4032633;29;20060;-63
2023/02/04 03:26:53;;;;;;;18.95;3.30;;;15.90;80.50;;;;;;4031957;29;20059;-63
2023/02/04 03:29:42;;;;;;;24.00;3.40;;;15.90;80.30;;;;;;4036796;29;20056;-63
2023/02/04 03:32:23;;;;;;;19.77;4.18;;;15.80;80.10;;;;;;4047899;29;20059;-63
2023/02/04 03:35:04;;;;;;;20.10;3.70;;;15.70;80.60;;;;;;4046645;29;20547;-63
2023/02/04 03:37:46;;;;;;;19.35;4.43;;;15.80;81.10;;;;;;4047820;29;20059;-63
2023/02/04 03:40:26;;;;;;;13.38;3.47;;;15.80;81.50;;;;;;4047679;29;20059;-63
2023/02/04 03:43:08;;;;;;;14.57;3.30;;;15.90;81.30;;;;;;4047952;29;20068;-63
2023/02/04 03:45:50;;;;;;;25.27;3.95;;;15.90;80.80;;;;;;4047645;29;20063;-63
2023/02/04 03:48:31;;;;;;;15.45;4.18;;;16.00;80.50;;;;;;4047261;29;20103;-63
2023/02/04 03:51:12;;;;;;;18.45;3.90;;;16.00;80.60;;;;;;4047319;29;20100;-63
2023/02/04 03:53:53;;;;;;;30.08;3.97;;;16.00;80.50;;;;;;4047683;29;20059;-63
2023/02/04 03:56:33;;;;;;;17.67;3.50;;;16.10;81.20;;;;;;4047592;29;20449;-63
2023/02/04 03:59:14;;;;;;;25.17;4.07;;;16.10;80.10;;;;;;4046792;29;20131;-63
2023/02/04 04:01:57;;;;;;;17.80;4.10;;;16.00;79.80;;;;;;4047429;29;20184;-63
2023/02/04 04:04:38;;;;;;;16.75;3.70;;;16.00;79.80;;;;;;4047043;29;20507;-63
2023/02/04 04:07:19;;;;;;;14.77;3.38;;;15.90;80.00;;;;;;4047244;29;20072;-63
2023/02/04 04:10:00;;;;;;;17.17;3.22;;;15.90;80.30;;;;;;4047459;29;20509;-63
2023/02/04 04:12:41;;;;;;;14.40;3.25;;;15.80;80.40;;;;;;4047515;29;20056;-63
2023/02/04 04:15:23;;;;;;;16.90;3.38;;;15.70;80.70;;;;;;4047207;29;20572;-63
2023/02/04 04:18:05;;;;;;;21.15;3.30;;;15.70;81.40;;;;;;4045427;29;20067;-63
2023/02/04 04:20:46;;;;;;;19.73;3.25;;;15.80;81.00;;;;;;4046823;29;20052;-63
2023/02/04 04:23:27;;;;;;;15.35;3.08;;;15.90;80.70;;;;;;4045687;29;20059;-63
2023/02/04 04:26:08;;;;;;;13.38;3.50;;;15.90;80.60;;;;;;4046972;29;20161;-63
2023/02/04 04:28:49;;;;;;;18.02;3.17;;;15.90;80.40;;;;;;4047223;29;20071;-62
2023/02/04 04:31:30;;;;;;;10.68;2.63;;;15.90;81.30;;;;;;4047291;29;20063;-62
2023/02/04 04:34:12;;;;;;;11.68;2.42;;;15.80;80.30;;;;;;4047425;29;20115;-63
2023/02/04 04:36:53;;;;;;;20.35;3.85;;;15.80;80.90;;;;;;4047295;29;20060;-63
2023/02/04 04:39:34;;;;;;;14.52;2.92;;;15.80;81.90;;;;;;4047027;29;20064;-63
2023/02/04 04:42:15;;;;;;;12.60;2.67;;;15.90;81.90;;;;;;4047362;29;20201;-63
2023/02/04 04:44:56;;;;;;;15.82;3.38;;;15.90;80.80;;;;;;4047235;29;20060;-63
2023/02/04 04:47:37;;;;;;;22.42;3.08;;;16.00;80.60;;;;;;4047037;29;20055;-63
2023/02/04 04:50:19;;;;;;;15.85;2.78;;;16.00;80.40;;;;;;4046963;29;20543;-63
2023/02/04 04:53:00;;;;;;;20.80;3.25;;;16.00;80.00;;;;;;4047287;29;20055;-63
2023/02/04 04:55:41;;;;;;;15.65;3.15;;;16.00;79.70;;;;;;4047256;29;20515;-63
2023/02/04 04:58:22;;;;;;;12.38;2.53;;;16.00;79.80;;;;;;4047145;29;20051;-63
2023/02/04 05:01:03;;;;;;;12.77;3.10;;;16.00;79.90;;;;;;4047210;29;20551;-63
2023/02/04 05:03:44;;;;;;;25.17;3.40;;;16.00;79.70;;;;;;4046871;29;20063;-63
2023/02/04 05:06:26;;;;;;;16.55;3.25;;;15.90;79.20;;;;;;4047156;29;20441;-63
2023/02/04 05:09:08;;;;;;;16.33;3.30;;;15.90;79.30;;;;;;4047080;29;20491;-64
2023/02/04 05:11:49;;;;;;;16.52;2.88;;;15.80;81.00;;;;;;4047188;29;20445;-63
2023/02/04 05:14:30;;;;;;;10.90;2.80;;;15.90;80.70;;;;;;4044515;29;20140;-63
2023/02/04 05:17:11;;;;;;;12.32;3.70;;;15.90;81.30;;;;;;4047372;29;20057;-63
2023/02/04 05:19:52;;;;;;;11.52;2.85;;;16.00;80.30;;;;;;4046448;29;20476;-64
2023/02/04 05:22:34;;;;;;;18.52;3.00;;;16.00;80.00;;;;;;4046393;29;20056;-63
2023/02/04 05:25:16;;;;;;;14.48;3.05;;;16.00;79.90;;;;;;4046877;29;20063;-64
2023/02/04 05:27:57;;;;;;;26.00;3.58;;;15.90;79.60;;;;;;4046809;29;20068;-63
2023/02/04 05:30:38;;;;;;;16.15;2.30;;;15.90;79.80;;;;;;4049724;29;20056;-63
2023/02/04 05:33:19;;;;;;;13.95;3.45;;;15.80;80.10;;;;;;4049882;29;20504;-63
2023/02/04 05:36:00;;;;;;;13.98;3.10;;;15.90;80.50;;;;;;4049918;29;20392;-63
2023/02/04 05:38:42;;;;;;;14.82;3.47;;;15.90;80.90;;;;;;4049562;29;20416;-63
2023/02/04 05:41:23;;;;;;;18.75;3.90;;;16.00;80.20;;;;;;4049392;29;20063;-63
2023/02/04 05:44:04;;;;;;;8.88;2.92;;;16.00;79.90;;;;;;4049713;29;20404;-63
2023/02/04 05:46:45;;;;;;;15.52;2.97;;;16.00;79.70;;;;;;4049829;29;20052;-63
2023/02/04 05:49:26;;;;;;;14.98;3.17;;;15.90;79.70;;;;;;4049427;29;20055;-63
2023/02/04 05:52:07;;;;;;;11.02;2.95;;;15.90;79.80;;;;;;4049285;29;20048;-63
2023/02/04 05:54:50;;;;;;;9.68;2.15;;;15.90;80.10;;;;;;4049200;29;20056;-63
2023/02/04 05:57:30;;;;;;;14.32;2.75;;;15.90;80.00;;;;;;4048385;29;20063;-63
2023/02/04 06:00:14;;;;;;;11.68;2.60;;;16.00;79.80;;;;;;4049531;29;20057;-63
2023/02/04 06:02:55;;;;;;;15.98;2.92;;;16.00;79.50;;;;;;4049209;29;20225;-62
2023/02/04 06:05:35;;;;;;;13.30;2.83;;;16.00;79.30;;;;;;4049359;29;20075;-63
2023/02/04 06:08:16;;;;;;;14.85;2.97;;;16.10;79.30;;;;;;4048833;29;20050;-63
2023/02/04 06:10:58;;;;;;;9.13;2.50;;;16.00;79.00;;;;;;4049185;29;20124;-63
2023/02/04 06:13:40;;;;;;;11.48;2.60;;;16.00;78.60;;;;;;4049074;29;20051;-63
2023/02/04 06:16:21;;;;;;;9.27;2.80;;;15.90;78.50;;;;;;4049355;29;20672;-63
2023/02/04 06:19:02;;;;;;;10.57;2.00;;;15.90;78.70;;;;;;4061636;29;20055;-63
2023/02/04 06:21:43;;;;;;;11.07;2.10;;;15.90;79.40;;;;;;4064257;29;20369;-63
2023/02/04 06:24:24;;;;;;;11.73;2.30;;;15.90;79.10;;;;;;4064185;29;20059;-63
2023/02/04 06:27:06;;;;;;;7.00;1.98;;;16.00;78.50;;;;;;4064229;29;20106;-62
2023/02/04 06:29:47;;;;;;;8.85;1.90;;;16.00;78.10;;;;;;4052236;29;20064;-62
2023/02/04 06:32:28;;;;;;;10.48;2.13;;;16.00;77.00;;;;;;4063444;29;20526;-63
2023/02/04 06:35:11;;;;;;;7.72;2.08;;;16.00;77.40;;;;;;4063314;29;20055;-63
2023/02/04 06:37:52;;;;;;;11.18;2.13;;;16.00;77.80;;;;;;4063770;29;20050;-63
2023/02/04 06:40:33;;;;;;;11.40;3.40;;;15.90;78.00;;;;;;4063691;29;20518;-62
2023/02/04 06:43:15;;;;;;;12.20;2.88;;;15.90;78.30;;;;;;4063805;29;20095;-63
2023/02/04 06:45:57;;;;;;;12.18;2.22;;;15.90;78.80;;;;;;4064151;29;20154;-63
2023/02/04 06:48:37;;;;;;;7.75;2.00;;;15.90;79.20;;;;;;4052222;29;20075;-63
2023/02/04 06:51:18;;;;;;;10.77;2.07;;;15.80;78.40;;;;;;4048485;29;20392;-62
2023/02/04 06:53:59;;;;;;;8.60;2.30;;;15.80;79.00;;;;;;4048003;29;20429;-63
2023/02/04 06:56:42;;;;;;;9.40;1.77;;;15.90;77.80;;;;;;4047852;29;20083;-63
2023/02/04 06:59:28;;;;;;;7.88;2.03;;;15.90;78.20;;;;;;4048006;29;20051;-63
2023/02/04 07:02:10;;;;;;;9.02;1.92;;;16.00;77.60;;;;;;4050291;29;20196;-63
2023/02/04 07:04:51;;;;;;;8.52;2.40;;;16.00;77.50;;;;;;4063303;29;20059;-63
2023/02/04 07:07:32;;;;;;;12.40;2.42;;;16.00;76.40;;;;;;4063640;29;20056;-63
2023/02/04 07:10:15;;;;;;;6.75;2.05;;;16.10;76.90;;;;;;4063431;29;20067;-63
2023/02/04 07:12:56;;;;;;;9.25;1.60;;;16.00;76.90;;;;;;4063419;29;20051;-63
2023/02/04 07:15:39;;;;;;;6.90;1.85;;;16.00;76.80;;;;;;4063653;29;20059;-62
2023/02/04 07:18:20;;;;;;;6.25;1.63;;;16.00;76.80;;;;;;4066462;29;20116;-63
2023/02/04 07:21:01;;;;;;;8.20;2.33;;;15.90;77.10;;;;;;4061893;29;20063;-63
2023/02/04 07:23:41;;;;;;;11.10;2.25;;;15.90;77.90;;;;;;4063636;29;20192;-64
2023/02/04 07:26:23;;;;;;;6.70;1.75;;;16.00;76.40;;;;;;4047870;29;20052;-64
2023/02/04 07:29:04;;;;;;;10.15;1.77;;;16.00;75.50;;;;;;4047800;29;20052;-63
2023/02/04 07:31:51;;;;;;;8.07;2.30;;;16.00;75.30;;;;;;4051404;29;20134;-64
2023/02/04 07:34:32;;;;;;;7.13;2.05;;;16.00;74.50;;;;;;4048996;29;20060;-63
2023/02/04 07:37:14;;;;;;;8.55;1.85;;;15.90;74.50;;;;;;4036274;29;20055;-64
2023/02/04 07:39:55;;;;;;;3.80;1.50;;;15.90;74.40;;;;;;4047331;29;20115;-63
2023/02/04 07:42:36;;;;;;;5.68;1.48;;;15.80;74.50;;;;;;4047142;29;20064;-64
2023/02/04 07:45:23;;;;;;;5.93;1.70;;;15.70;75.30;;;;;;4025118;29;20201;-63
2023/02/04 07:48:06;;;;;;;9.95;2.33;;;15.70;75.60;;;;;;4047375;29;20136;-63
2023/02/04 07:50:47;;;;;;;6.20;2.00;;;15.60;75.60;;;;;;4060372;29;20079;-64
2023/02/04 07:53:28;;;;;;;9.82;2.05;;;15.60;75.60;;;;;;4062672;29;20059;-63
2023/02/04 07:56:09;;;;;;;8.30;1.93;;;15.60;75.80;;;;;;4062811;29;20058;-64
2023/02/04 07:58:50;;;;;;;8.88;1.55;;;15.60;76.70;;;;;;4062948;29;20322;-62
2023/02/04 08:01:31;;;;;;;8.70;1.63;;;15.60;77.00;;;;;;4046972;29;20060;-64
2023/02/04 08:04:13;;;;;;;8.30;1.70;;;15.70;76.80;;;;;;4047346;29;20491;-63
2023/02/04 08:06:54;;;;;;;4.53;1.67;;;15.70;76.40;;;;;;4047443;29;20051;-64
2023/02/04 08:09:35;;;;;;;6.85;1.73;;;15.80;76.10;;;;;;4053377;29;20114;-64
2023/02/04 08:12:16;;;;;;;4.78;1.80;;;15.80;75.80;;;;;;4062898;29;20487;-64
2023/02/04 08:14:57;;;;;;;4.97;1.90;;;15.90;75.60;;;;;;4062936;29;20070;-64
2023/02/04 08:17:38;;;;;;;8.82;1.67;;;15.90;75.30;;;;;;4062808;29;20103;-64
2023/02/04 08:20:20;;;;;;;7.07;1.95;;;15.90;75.50;;;;;;4063029;29;20059;-63
2023/02/04 08:23:02;;;;;;;7.90;1.70;;;16.00;75.30;;;;;;4062855;29;20051;-63
2023/02/04 08:25:44;;;;;;;6.60;1.55;;;16.00;74.90;;;;;;4062768;29;20184;-64
2023/02/04 08:28:25;;;;;;;8.27;1.65;;;16.00;74.60;;;;;;4062770;29;20059;-64
2023/02/04 08:31:06;;;;;;;5.35;1.30;;;16.00;74.60;;;;;;4062829;29;20526;-64
2023/02/04 08:33:47;;;;;;;4.85;1.83;;;16.00;74.40;;;;;;4062510;29;20058;-66
2023/02/04 08:36:30;;;;;;;8.05;1.75;;;15.90;74.20;;;;;;4062652;29;20059;-63
2023/02/04 08:39:11;;;;;;;5.88;1.75;;;15.80;74.20;;;;;;4062492;29;20055;-64
2023/02/04 08:41:52;;;;;;;7.13;1.95;;;15.80;74.50;;;;;;4069904;29;20067;-67
2023/02/04 08:44:32;;;;;;;5.90;2.05;;;15.80;74.50;;;;;;4068592;29;20153;-63
2023/02/04 08:47:13;;;;;;;6.37;1.57;;;15.80;74.30;;;;;;4062418;29;20486;-64
2023/02/04 08:49:54;;;;;;;3.60;1.35;;;15.80;73.70;;;;;;4060953;29;20295;-64
2023/02/04 08:52:36;;;;;;;3.67;1.67;;;15.80;73.60;;;;;;4062306;29;20063;-66
2023/02/04 08:55:17;;;;;;;9.25;1.73;;;15.80;72.90;;;;;;4062307;29;20192;-67
2023/02/04 08:58:00;;;;;;;7.30;1.70;;;15.70;73.50;;;;;;4062198;29;20083;-64
2023/02/04 09:00:42;;;;;;;5.03;2.17;;;15.60;73.90;;;;;;4061804;29;20058;-65
2023/02/04 09:03:22;;;;;;;6.57;1.75;;;15.60;73.80;;;;;;4062130;29;20207;-65
2023/02/04 09:06:04;;;;;;;4.82;1.52;;;15.60;74.30;;;;;;4060366;29;20108;-66
2023/02/04 09:08:46;;;;;;;4.65;1.77;;;15.60;74.70;;;;;;4065053;29;20122;-63
2023/02/04 09:11:26;;;;;;;5.28;1.48;;;15.60;75.40;;;;;;4066492;29;20156;-64
2023/02/04 09:14:08;;;;;;;5.15;1.73;;;15.60;75.70;;;;;;4059596;29;20119;-69
2023/02/04 09:16:49;;;;;;;4.03;1.35;;;15.70;75.80;;;;;;4061132;29;20063;-69
2023/02/04 09:19:29;;;;;;;8.43;1.73;;;15.70;75.50;;;;;;4061871;29;20078;-69
2023/02/04 09:22:12;;;;;;;5.53;1.38;;;15.70;75.30;;;;;;4062177;29;20055;-65
2023/02/04 09:24:55;;;;;;;6.00;1.88;;;15.70;75.20;;;;;;4062139;29;20055;-65
2023/02/04 09:27:35;;;;;;;7.32;2.40;;;15.70;74.90;;;;;;4062333;29;20066;-64
2023/02/04 09:30:17;;;;;;;4.95;1.75;;;15.80;75.60;;;;;;4061953;29;20071;-63
2023/02/04 09:32:58;;;;;;;5.55;1.90;;;15.90;75.00;;;;;;4062244;29;20063;-64
2023/02/04 09:35:39;;;;;;;6.53;1.53;;;15.90;74.60;;;;;;4062172;29;20082;-61
2023/02/04 09:38:21;;;;;;;6.22;1.65;;;15.90;73.80;;;;;;4062163;29;20055;-63
2023/02/04 09:41:07;;;;;;;5.20;1.60;;;16.00;73.50;;;;;;4061891;29;20055;-61
2023/02/04 09:43:48;;;;;;;6.68;2.33;;;15.90;73.20;;;;;;4061782;29;20137;-62
2023/02/04 09:46:30;;;;;;;6.32;1.70;;;15.90;73.40;;;;;;4062462;29;20079;-62
2023/02/04 09:49:11;;;;;;;4.75;1.75;;;15.80;73.70;;;;;;4062383;29;20499;-62
2023/02/04 09:51:53;;;;;;;7.68;2.58;;;15.80;74.20;;;;;;4062635;29;20102;-65
2023/02/04 09:54:34;;;;;;;4.60;2.03;;;15.80;75.00;;;;;;4061754;29;20566;-66
2023/02/04 09:57:19;;;;;;;3.72;1.85;;;15.80;75.20;;;;;;4061439;29;20063;-66
2023/02/04 10:00:00;;;;;;;6.43;2.08;;;15.70;74.90;;;;;;4049045;29;20095;-67
2023/02/04 10:02:41;;;;;;;7.25;2.13;;;15.70;74.10;;;;;;4060608;29;20099;-67
2023/02/04 10:05:27;;;;;;;9.75;1.92;;;15.60;73.50;;;;;;4061038;29;20059;-67
2023/02/04 10:08:10;;;;;;;8.15;2.22;;;15.60;74.50;;;;;;4061591;29;20063;-67
2023/02/04 10:10:51;;;;;;;9.82;2.10;;;15.70;75.10;;;;;;4061541;29;20073;-67
2023/02/04 10:13:37;;;;;;;5.82;1.80;;;15.70;75.10;;;;;;4061837;29;21052;-67
2023/02/04 10:16:22;;;;;;;4.53;1.77;;;15.70;74.80;;;;;;4061969;29;20063;-65
2023/02/04 10:19:06;;;;;;;7.50;1.77;;;15.70;74.90;;;;;;4061122;29;20503;-67
2023/02/04 10:21:47;;;;;;;9.70;1.90;;;15.80;74.90;;;;;;4055518;29;20111;-69
2023/02/04 10:24:29;;;;;;;6.10;2.20;;;16.00;75.90;;;;;;4049645;29;20095;-69
2023/02/04 10:27:14;;;;;;;3.83;1.52;;;16.10;74.60;;;;;;4061397;29;20051;-68
2023/02/04 10:29:58;;;;;;;6.63;2.00;;;16.30;74.20;;;;;;4061027;29;20571;-68
2023/02/04 10:32:42;;;;;;;4.57;2.13;;;16.50;73.80;;;;;;4025924;29;20078;-69
2023/02/04 10:35:28;;;;;;;7.57;2.13;;;16.70;72.60;;;;;;4015464;29;20059;-69
2023/02/04 10:38:10;;;;;;;5.20;2.30;;;16.90;71.90;;;;;;4061430;29;20054;-69
2023/02/04 10:41:01;;;;;;;5.28;1.60;;;17.10;71.40;;;;;;4061158;29;20058;-68
2023/02/04 10:43:42;;;;;;;5.05;1.55;;;17.20;69.80;;;;;;4061018;29;20051;-69
2023/02/04 10:46:24;;;;;;;6.57;2.08;;;17.30;70.10;;;;;;4049633;29;20517;-69
2023/02/04 10:49:06;;;;;;;7.63;1.85;;;17.30;68.80;;;;;;4060962;29;20574;-69
2023/02/04 10:51:48;;;;;;;6.80;1.77;;;17.30;69.10;;;;;;4061153;29;20495;-69
2023/02/04 10:54:35;;;;;;;3.80;1.40;;;17.30;69.40;;;;;;4060992;29;20181;-69
2023/02/04 10:57:19;;;;;;;6.78;1.67;;;17.20;68.80;;;;;;4061252;29;20191;-69
2023/02/04 11:00:03;;;;;;;4.93;2.03;;;17.10;69.10;;;;;;4060548;29;20059;-69
2023/02/04 11:02:53;;;;;;;5.00;1.90;;;17.00;69.70;;;;;;4049380;29;20059;-69
2023/02/04 11:05:36;;;;;;;3.28;1.52;;;17.00;69.60;;;;;;4060878;29;20067;-69
2023/02/04 11:08:22;;;;;;;3.72;1.58;;;17.10;69.30;;;;;;4060652;29;20055;-69
2023/02/04 11:11:06;;;;;;;4.85;1.50;;;17.20;68.90;;;;;;4060361;29;20078;-69
2023/02/04 11:14:00;;;;;;;4.32;1.40;;;17.10;69.00;;;;;;4055065;29;20055;-68
2023/02/04 11:16:48;;;;;;;5.85;1.63;;;17.10;69.10;;;;;;4060442;29;20111;-67
2023/02/04 11:19:37;;;;;;;2.42;1.40;;;17.20;69.30;;;;;;4060354;29;20459;-67
2023/02/04 11:22:24;;;;;;;4.50;1.83;;;17.20;69.30;;;;;;4060868;29;20094;-67
2023/02/04 11:25:32;;;;;;;6.95;1.88;;;17.20;69.80;;;;;;4060991;29;20059;-67
2023/02/04 11:28:15;;;;;;;7.10;2.35;;;17.10;70.00;;;;;;4060515;29;20523;-67
2023/02/04 11:31:00;;;;;;;3.42;1.40;;;17.10;70.50;;;;;;4060534;29;20067;-67
2023/02/04 11:33:42;;;;;;;5.32;2.13;;;17.00;70.30;;;;;;4060699;29;20523;-67
2023/02/04 11:36:24;;;;;;;7.15;2.50;;;16.90;70.70;;;;;;4060926;29;20059;-67
2023/02/04 11:39:15;;;;;;;3.85;1.63;;;16.80;70.30;;;;;;4060410;29;20550;-67
2023/02/04 11:41:56;;;;;;;9.10;2.23;;;16.70;70.90;;;;;;4060203;29;20759;-68
2023/02/04 11:44:37;;;;;;;4.00;1.55;;;16.60;72.00;;;;;;4060507;29;20291;-66
2023/02/04 11:47:18;;;;;;;3.78;1.60;;;16.50;72.10;;;;;;4060574;29;20055;-67
2023/02/04 11:50:02;;;;;;;7.28;1.65;;;16.50;72.20;;;;;;4059453;29;20055;-67
2023/02/04 11:52:45;;;;;;;6.05;1.85;;;16.40;72.20;;;;;;4060780;29;20071;-68
2023/02/04 11:55:26;;;;;;;4.15;1.60;;;16.40;72.10;;;;;;4060278;29;20048;-67
2023/02/04 11:58:15;;;;;;;3.50;1.40;;;16.30;72.50;;;;;;4060539;29;20102;-67
2023/02/04 12:00:56;;;;;;;6.53;1.95;;;16.30;72.70;;;;;;4060272;29;20087;-67
2023/02/04 12:03:46;;;;;;;2.78;1.80;;;16.20;73.80;;;;;;4057607;29;20399;-67
2023/02/04 12:06:29;;;;;;;6.50;2.70;;;16.20;72.20;;;;;;4060046;29;20192;-67
2023/02/04 12:09:25;;;;;;;5.63;1.83;;;16.10;72.70;;;;;;4060368;29;20507;-67
2023/02/04 12:12:06;;;;;;;5.07;1.70;;;16.00;72.50;;;;;;4058159;29;20055;-67
2023/02/04 12:14:57;;;;;;;4.60;1.83;;;16.00;73.50;;;;;;4060168;29;20175;-67
2023/02/04 12:17:38;;;;;;;4.77;1.77;;;16.00;73.50;;;;;;4059815;29;20396;-66
2023/02/04 12:20:19;;;;;;;4.15;2.00;;;16.00;74.90;;;;;;4030898;29;20054;-67
2023/02/04 12:23:00;;;;;;;2.25;1.40;;;16.00;75.50;;;;;;4044199;29;20103;-67
2023/02/04 12:25:42;;;;;;;3.65;1.55;;;15.90;75.40;;;;;;4043322;29;20392;-68
2023/02/04 12:28:24;;;;;;;6.22;1.67;;;15.90;73.40;;;;;;4043640;29;20059;-68
2023/02/04 12:31:05;;;;;;;3.58;2.10;;;15.90;74.20;;;;;;4044448;29;20476;-68
2023/02/04 12:33:46;;;;;;;4.00;1.75;;;15.80;74.80;;;;;;4044202;29;20155;-70
2023/02/04 12:36:28;;;;;;;3.13;1.40;;;15.80;75.40;;;;;;4044372;29;20063;-70
2023/02/04 12:39:09;;;;;;;1.58;1.45;;;15.80;74.60;;;;;;4035727;29;20119;-70
2023/02/04 12:41:51;;;;;;;5.45;1.42;;;15.80;73.90;;;;;;4046982;29;20547;-70
2023/02/04 12:44:34;;;;;;;3.90;1.73;;;15.70;73.50;;;;;;4046272;29;20067;-70
2023/02/04 12:47:15;;;;;;;2.78;1.30;;;15.70;73.70;;;;;;4047017;29;20063;-70
2023/02/04 12:49:56;;;;;;;5.50;1.75;;;15.70;74.40;;;;;;4047050;29;20068;-70
2023/02/04 12:52:37;;;;;;;4.70;1.52;;;15.60;73.70;;;;;;4046680;29;20192;-69
2023/02/04 12:55:19;;;;;;;;;;;15.60;74.40;;;;;;4038717;29;20192;-70
2023/02/04 12:58:01;;;;;;;6.10;2.20;;;15.60;75.20;;;;;;4046670;29;19931;-69
2023/02/04 13:00:43;;;;;;;3.00;1.75;;;15.50;76.80;;;;;;4045664;29;20067;-67
2023/02/04 13:03:25;;;;;;;5.57;1.75;;;15.50;76.80;;;;;;4046591;29;20136;-69
2023/02/04 13:06:06;;;;;;;3.67;1.67;;;15.50;76.10;;;;;;4046762;29;20051;-69
2023/02/04 13:08:47;;;;;;;3.83;1.60;;;15.50;73.30;;;;;;4034601;29;20068;-69
2023/02/04 13:11:28;;;;;;;6.40;1.73;;;15.50;75.00;;;;;;4045961;29;20068;-72
2023/02/04 13:14:10;;;;;;;3.10;1.85;;;15.60;76.00;;;;;;4046220;29;20063;-70
2023/02/04 13:16:51;;;;;;;2.60;1.30;;;15.60;75.10;;;;;;4046290;29;20059;-69
2023/02/04 13:19:33;;;;;;;1.70;1.27;;;15.70;74.90;;;;;;4033662;29;20064;-69
2023/02/04 13:22:14;;;;;;;3.17;1.63;;;15.70;74.10;;;;;;4030476;29;20100;-67
2023/02/04 13:24:55;;;;;;;2.13;1.58;;;15.70;74.20;;;;;;4030976;29;20068;-67
2023/02/04 13:27:36;;;;;;;1.73;1.38;;;15.80;75.70;;;;;;4019894;29;20060;-66
2023/02/04 13:30:18;;;;;;;1.52;1.42;;;15.80;75.50;;;;;;4029085;29;20606;-68
2023/02/04 13:32:59;;;;;;;3.70;1.52;;;15.80;75.00;;;;;;4029253;29;20056;-69
2023/02/04 13:35:40;;;;;;;1.83;1.33;;;15.90;75.50;;;;;;4022911;29;20063;-68
2023/02/04 13:38:21;;;;;;;1.23;1.13;;;15.90;74.90;;;;;;4030515;29;20059;-68
2023/02/04 13:41:02;;;;;;;1.60;1.30;;;15.90;73.70;;;;;;4030676;29;20182;-68
2023/02/04 13:43:43;;;;;;;2.88;1.75;;;15.90;74.20;;;;;;4030454;29;20181;-68
2023/02/04 13:46:25;;;;;;;1.98;1.38;;;15.90;74.00;;;;;;4030077;29;20056;-67
2023/02/04 13:49:07;;;;;;;4.63;1.60;;;15.90;74.50;;;;;;4030343;29;20120;-67
2023/02/04 13:51:48;;;;;;;1.65;1.45;;;15.90;73.70;;;;;;4031120;29;20072;-67
2023/02/04 13:54:29;;;;;;;1.65;1.52;;;15.90;73.30;;;;;;4031364;29;20076;-68
2023/02/04 13:57:10;;;;;;;1.25;1.15;;;15.90;74.40;;;;;;4031291;29;20056;-67
2023/02/04 13:59:51;;;;;;;3.95;1.38;;;15.80;74.50;;;;;;4019755;29;20060;-67